Aérodrome :
LOGIN :

S'inscrire | Disclaimer

   EN    FR    IT 

 










Légende :    VFR   VFR Marginal   IFR   IFR Intensif   IFR Très Intensif
Visi : 
Plafond : 
>= 8 km
>= 3000ft
5 à 8 km
1000 à 3000 ft
1500m à 5 km
500 à 1000 ft
800 à 1500m
200 à 500 ft
< 800m
< 200 ft
Symboles :   Orages  Brouillard  Fortes neiges  Fortes précipitations  Vent > 20 kt
SIGMETs :   Divers  Orages  Givrage  Turbulence  Onde Orograph.  Cendres Volcan.






- Altitude de l'aérodrome : 3520 ft
- Code IATA : KFS


LTAL - Kastamonu

DERNIER METAR :
  • 011250Z 01005KT 350V050 9999 SCT030 BKN090 19/08 Q1010

METARs EXPIRÉS :
  • 011150Z VRB05KT 9999 SCT030 BKN090 18/08 Q1010
  • 011050Z 02005KT 330V070 9999 FEW030 BKN090 18/09 Q1010

TAF TAF LTAL
Valide du 01 à 12h jusqu'au 01 à 21h UTC


011040Z 0112/0121 35009KT 9999 SCT033 BKN080
TEMPO 0112/0115 -SHRA BKN026 BKN070



MET'MAP, la Météo Aéronautique d'un coup d'oeil ! - Copyright ORBIFLY Décembre 2007 - Disclaimer

ORBIFLY MET'MAP TEAM :

Programmation & Développement : Alexandra Zaïnal
Sur une idée originale de : Baudouin d'Aumeries
Assistance à la programmation : Marc-Olivier Méhu
Soutien technique & logistique : Manuel Goepfert

Contact : metmap@orbifly.com




SOURCES & CREDITS :

   NOAA